sensor_id;sensor_type;location;lat;lon;timestamp;P1;durP1;ratioP1;P2;durP2;ratioP2
21567;SDS011;10944;42.590;12.630;2022-11-20T00:00:55;6.85;;;4.38;;
21567;SDS011;10944;42.590;12.630;2022-11-20T00:03:22;5.82;;;3.90;;
21567;SDS011;10944;42.590;12.630;2022-11-20T00:05:48;6.70;;;4.00;;
21567;SDS011;10944;42.590;12.630;2022-11-20T00:08:13;5.57;;;3.90;;
21567;SDS011;10944;42.590;12.630;2022-11-20T00:10:40;4.97;;;3.60;;
21567;SDS011;10944;42.590;12.630;2022-11-20T00:13:06;5.38;;;3.67;;
21567;SDS011;10944;42.590;12.630;2022-11-20T00:15:32;6.93;;;3.53;;
21567;SDS011;10944;42.590;12.630;2022-11-20T00:17:58;5.20;;;3.90;;
21567;SDS011;10944;42.590;12.630;2022-11-20T00:20:24;5.85;;;3.60;;
21567;SDS011;10944;42.590;12.630;2022-11-20T00:22:50;6.35;;;3.58;;
21567;SDS011;10944;42.590;12.630;2022-11-20T00:25:16;5.72;;;3.28;;
21567;SDS011;10944;42.590;12.630;2022-11-20T00:27:41;4.93;;;3.20;;
21567;SDS011;10944;42.590;12.630;2022-11-20T00:30:07;4.00;;;2.80;;
21567;SDS011;10944;42.590;12.630;2022-11-20T00:32:33;4.07;;;3.08;;
21567;SDS011;10944;42.590;12.630;2022-11-20T00:34:59;4.13;;;2.90;;
21567;SDS011;10944;42.590;12.630;2022-11-20T00:37:25;4.45;;;2.88;;
21567;SDS011;10944;42.590;12.630;2022-11-20T00:39:51;4.10;;;2.85;;
21567;SDS011;10944;42.590;12.630;2022-11-20T00:42:17;3.95;;;3.00;;
21567;SDS011;10944;42.590;12.630;2022-11-20T00:44:43;4.90;;;2.80;;
21567;SDS011;10944;42.590;12.630;2022-11-20T00:47:09;4.70;;;2.97;;
21567;SDS011;10944;42.590;12.630;2022-11-20T00:49:35;5.30;;;2.75;;
21567;SDS011;10944;42.590;12.630;2022-11-20T00:52:01;3.80;;;2.47;;
21567;SDS011;10944;42.590;12.630;2022-11-20T00:54:27;5.03;;;3.00;;
21567;SDS011;10944;42.590;12.630;2022-11-20T00:56:53;5.70;;;2.83;;
21567;SDS011;10944;42.590;12.630;2022-11-20T00:59:19;4.45;;;3.10;;
21567;SDS011;10944;42.590;12.630;2022-11-20T01:01:44;3.80;;;2.90;;
21567;SDS011;10944;42.590;12.630;2022-11-20T01:04:10;4.40;;;2.93;;
21567;SDS011;10944;42.590;12.630;2022-11-20T01:06:37;3.38;;;2.60;;
21567;SDS011;10944;42.590;12.630;2022-11-20T01:09:05;3.10;;;2.60;;
21567;SDS011;10944;42.590;12.630;2022-11-20T01:11:41;3.92;;;2.80;;
21567;SDS011;10944;42.590;12.630;2022-11-20T01:14:10;5.37;;;2.60;;
21567;SDS011;10944;42.590;12.630;2022-11-20T01:16:38;4.53;;;2.58;;
21567;SDS011;10944;42.590;12.630;2022-11-20T01:19:08;5.73;;;2.80;;
21567;SDS011;10944;42.590;12.630;2022-11-20T01:21:40;5.32;;;2.83;;
21567;SDS011;10944;42.590;12.630;2022-11-20T01:24:09;4.40;;;2.83;;
21567;SDS011;10944;42.590;12.630;2022-11-20T01:26:37;4.53;;;2.77;;
21567;SDS011;10944;42.590;12.630;2022-11-20T01:29:05;5.25;;;2.88;;
21567;SDS011;10944;42.590;12.630;2022-11-20T01:31:33;3.83;;;2.63;;
21567;SDS011;10944;42.590;12.630;2022-11-20T01:34:02;4.93;;;2.50;;
21567;SDS011;10944;42.590;12.630;2022-11-20T01:36:31;4.37;;;2.67;;
21567;SDS011;10944;42.590;12.630;2022-11-20T01:39:00;4.13;;;3.20;;
21567;SDS011;10944;42.590;12.630;2022-11-20T01:41:30;4.72;;;3.20;;
21567;SDS011;10944;42.590;12.630;2022-11-20T01:44:17;6.60;;;3.40;;
21567;SDS011;10944;42.590;12.630;2022-11-20T01:49:37;7.77;;;3.77;;
21567;SDS011;10944;42.590;12.630;2022-11-20T01:52:09;12.13;;;4.10;;
21567;SDS011;10944;42.590;12.630;2022-11-20T01:57:17;7.27;;;4.00;;
21567;SDS011;10944;42.590;12.630;2022-11-20T01:59:46;8.50;;;5.40;;
21567;SDS011;10944;42.590;12.630;2022-11-20T02:02:19;5.97;;;4.43;;
21567;SDS011;10944;42.590;12.630;2022-11-20T02:04:47;6.25;;;4.30;;
21567;SDS011;10944;42.590;12.630;2022-11-20T02:07:16;5.77;;;4.10;;
21567;SDS011;10944;42.590;12.630;2022-11-20T02:09:43;7.00;;;4.27;;
21567;SDS011;10944;42.590;12.630;2022-11-20T02:12:09;7.43;;;3.93;;
21567;SDS011;10944;42.590;12.630;2022-11-20T02:14:56;5.82;;;3.88;;
21567;SDS011;10944;42.590;12.630;2022-11-20T02:17:22;5.35;;;3.67;;
21567;SDS011;10944;42.590;12.630;2022-11-20T02:19:49;6.10;;;4.20;;
21567;SDS011;10944;42.590;12.630;2022-11-20T02:22:19;5.60;;;4.40;;
21567;SDS011;10944;42.590;12.630;2022-11-20T02:24:51;5.65;;;4.45;;
21567;SDS011;10944;42.590;12.630;2022-11-20T02:27:17;7.77;;;5.33;;
21567;SDS011;10944;42.590;12.630;2022-11-20T02:32:22;6.60;;;4.80;;
21567;SDS011;10944;42.590;12.630;2022-11-20T02:34:51;6.53;;;4.50;;
21567;SDS011;10944;42.590;12.630;2022-11-20T02:37:17;6.80;;;4.90;;
21567;SDS011;10944;42.590;12.630;2022-11-20T02:39:44;7.33;;;4.90;;
21567;SDS011;10944;42.590;12.630;2022-11-20T02:42:12;7.33;;;5.07;;
21567;SDS011;10944;42.590;12.630;2022-11-20T02:44:38;7.50;;;5.77;;
21567;SDS011;10944;42.590;12.630;2022-11-20T02:47:04;7.15;;;5.45;;
21567;SDS011;10944;42.590;12.630;2022-11-20T02:49:30;8.57;;;6.27;;
21567;SDS011;10944;42.590;12.630;2022-11-20T02:51:55;8.17;;;6.50;;
21567;SDS011;10944;42.590;12.630;2022-11-20T02:54:21;9.95;;;6.35;;
21567;SDS011;10944;42.590;12.630;2022-11-20T02:56:47;8.10;;;6.23;;
21567;SDS011;10944;42.590;12.630;2022-11-20T02:59:13;8.55;;;5.70;;
21567;SDS011;10944;42.590;12.630;2022-11-20T03:01:38;7.70;;;5.33;;
21567;SDS011;10944;42.590;12.630;2022-11-20T03:04:04;8.23;;;5.47;;
21567;SDS011;10944;42.590;12.630;2022-11-20T03:06:30;6.90;;;5.43;;
21567;SDS011;10944;42.590;12.630;2022-11-20T03:08:56;10.50;;;5.73;;
21567;SDS011;10944;42.590;12.630;2022-11-20T03:11:22;8.17;;;5.63;;
21567;SDS011;10944;42.590;12.630;2022-11-20T03:13:48;6.77;;;5.33;;
21567;SDS011;10944;42.590;12.630;2022-11-20T03:16:16;7.50;;;5.80;;
21567;SDS011;10944;42.590;12.630;2022-11-20T03:18:43;8.13;;;5.70;;
21567;SDS011;10944;42.590;12.630;2022-11-20T03:21:10;7.37;;;6.00;;
21567;SDS011;10944;42.590;12.630;2022-11-20T03:23:37;8.60;;;5.85;;
21567;SDS011;10944;42.590;12.630;2022-11-20T03:26:16;8.00;;;6.20;;
21567;SDS011;10944;42.590;12.630;2022-11-20T03:28:48;8.23;;;6.72;;
21567;SDS011;10944;42.590;12.630;2022-11-20T03:31:15;8.97;;;6.67;;
21567;SDS011;10944;42.590;12.630;2022-11-20T03:33:42;7.68;;;6.38;;
21567;SDS011;10944;42.590;12.630;2022-11-20T03:36:09;8.00;;;6.43;;
21567;SDS011;10944;42.590;12.630;2022-11-20T03:38:37;8.07;;;6.50;;
21567;SDS011;10944;42.590;12.630;2022-11-20T03:41:11;7.88;;;6.13;;
21567;SDS011;10944;42.590;12.630;2022-11-20T03:43:38;8.32;;;6.20;;
21567;SDS011;10944;42.590;12.630;2022-11-20T03:46:04;7.10;;;5.40;;
21567;SDS011;10944;42.590;12.630;2022-11-20T03:48:31;7.18;;;5.32;;
21567;SDS011;10944;42.590;12.630;2022-11-20T03:51:10;7.22;;;5.13;;
21567;SDS011;10944;42.590;12.630;2022-11-20T03:53:36;7.03;;;5.50;;
21567;SDS011;10944;42.590;12.630;2022-11-20T03:56:03;6.60;;;5.23;;
21567;SDS011;10944;42.590;12.630;2022-11-20T03:58:29;7.57;;;4.78;;
21567;SDS011;10944;42.590;12.630;2022-11-20T04:00:55;8.00;;;4.55;;
21567;SDS011;10944;42.590;12.630;2022-11-20T04:03:20;5.40;;;4.13;;
21567;SDS011;10944;42.590;12.630;2022-11-20T04:05:46;5.50;;;4.17;;
21567;SDS011;10944;42.590;12.630;2022-11-20T04:08:12;4.47;;;3.37;;
21567;SDS011;10944;42.590;12.630;2022-11-20T04:10:37;5.70;;;3.13;;
21567;SDS011;10944;42.590;12.630;2022-11-20T04:13:03;4.75;;;2.72;;
21567;SDS011;10944;42.590;12.630;2022-11-20T04:15:29;3.57;;;2.50;;
21567;SDS011;10944;42.590;12.630;2022-11-20T04:17:54;4.20;;;2.77;;
21567;SDS011;10944;42.590;12.630;2022-11-20T04:20:20;3.67;;;2.53;;
21567;SDS011;10944;42.590;12.630;2022-11-20T04:22:46;4.53;;;2.77;;
21567;SDS011;10944;42.590;12.630;2022-11-20T04:25:12;4.33;;;3.40;;
21567;SDS011;10944;42.590;12.630;2022-11-20T04:27:37;4.00;;;3.00;;
21567;SDS011;10944;42.590;12.630;2022-11-20T04:30:03;3.20;;;2.27;;
21567;SDS011;10944;42.590;12.630;2022-11-20T04:32:29;4.33;;;3.07;;
21567;SDS011;10944;42.590;12.630;2022-11-20T04:34:55;4.90;;;3.77;;
21567;SDS011;10944;42.590;12.630;2022-11-20T04:37:21;4.83;;;3.53;;
21567;SDS011;10944;42.590;12.630;2022-11-20T04:39:46;4.57;;;3.33;;
21567;SDS011;10944;42.590;12.630;2022-11-20T04:42:12;4.40;;;3.33;;
21567;SDS011;10944;42.590;12.630;2022-11-20T04:44:53;4.97;;;3.58;;
21567;SDS011;10944;42.590;12.630;2022-11-20T04:47:19;4.00;;;3.07;;
21567;SDS011;10944;42.590;12.630;2022-11-20T04:49:45;5.15;;;3.17;;
21567;SDS011;10944;42.590;12.630;2022-11-20T04:52:10;4.80;;;3.87;;
21567;SDS011;10944;42.590;12.630;2022-11-20T04:54:36;4.85;;;3.65;;
21567;SDS011;10944;42.590;12.630;2022-11-20T04:57:02;5.25;;;4.10;;
21567;SDS011;10944;42.590;12.630;2022-11-20T04:59:27;6.32;;;4.70;;
21567;SDS011;10944;42.590;12.630;2022-11-20T05:01:53;7.20;;;5.32;;
21567;SDS011;10944;42.590;12.630;2022-11-20T05:04:19;8.13;;;5.90;;
21567;SDS011;10944;42.590;12.630;2022-11-20T05:06:45;6.75;;;5.32;;
21567;SDS011;10944;42.590;12.630;2022-11-20T05:09:11;7.32;;;5.80;;
21567;SDS011;10944;42.590;12.630;2022-11-20T05:11:37;8.18;;;5.88;;
21567;SDS011;10944;42.590;12.630;2022-11-20T05:14:03;7.90;;;6.07;;
21567;SDS011;10944;42.590;12.630;2022-11-20T05:16:29;8.82;;;6.35;;
21567;SDS011;10944;42.590;12.630;2022-11-20T05:18:54;10.55;;;6.28;;
21567;SDS011;10944;42.590;12.630;2022-11-20T05:21:20;9.60;;;6.65;;
21567;SDS011;10944;42.590;12.630;2022-11-20T05:23:47;8.60;;;6.10;;
21567;SDS011;10944;42.590;12.630;2022-11-20T05:26:20;8.93;;;6.22;;
21567;SDS011;10944;42.590;12.630;2022-11-20T05:28:47;8.38;;;5.65;;
21567;SDS011;10944;42.590;12.630;2022-11-20T05:31:14;8.55;;;5.82;;
21567;SDS011;10944;42.590;12.630;2022-11-20T05:33:42;8.98;;;6.20;;
21567;SDS011;10944;42.590;12.630;2022-11-20T05:36:09;9.10;;;6.07;;
21567;SDS011;10944;42.590;12.630;2022-11-20T05:38:36;10.40;;;7.32;;
21567;SDS011;10944;42.590;12.630;2022-11-20T05:41:09;12.43;;;7.63;;
21567;SDS011;10944;42.590;12.630;2022-11-20T05:43:37;13.20;;;8.25;;
21567;SDS011;10944;42.590;12.630;2022-11-20T05:46:05;11.80;;;7.88;;
21567;SDS011;10944;42.590;12.630;2022-11-20T05:48:33;13.93;;;7.07;;
21567;SDS011;10944;42.590;12.630;2022-11-20T05:51:00;9.00;;;6.45;;
21567;SDS011;10944;42.590;12.630;2022-11-20T05:53:27;10.68;;;6.78;;
21567;SDS011;10944;42.590;12.630;2022-11-20T05:55:56;8.95;;;5.88;;
21567;SDS011;10944;42.590;12.630;2022-11-20T05:58:23;8.80;;;5.90;;
21567;SDS011;10944;42.590;12.630;2022-11-20T06:00:49;7.82;;;5.40;;
21567;SDS011;10944;42.590;12.630;2022-11-20T06:03:15;7.10;;;5.00;;
21567;SDS011;10944;42.590;12.630;2022-11-20T06:05:40;7.13;;;5.22;;
21567;SDS011;10944;42.590;12.630;2022-11-20T06:08:06;7.32;;;5.07;;
21567;SDS011;10944;42.590;12.630;2022-11-20T06:10:32;7.63;;;5.28;;
21567;SDS011;10944;42.590;12.630;2022-11-20T06:12:58;8.15;;;5.00;;
21567;SDS011;10944;42.590;12.630;2022-11-20T06:15:23;9.07;;;5.68;;
21567;SDS011;10944;42.590;12.630;2022-11-20T06:17:53;9.05;;;5.72;;
21567;SDS011;10944;42.590;12.630;2022-11-20T06:20:20;7.45;;;5.50;;
21567;SDS011;10944;42.590;12.630;2022-11-20T06:22:46;7.95;;;5.35;;
21567;SDS011;10944;42.590;12.630;2022-11-20T06:25:12;9.18;;;5.53;;
21567;SDS011;10944;42.590;12.630;2022-11-20T06:27:38;7.80;;;5.32;;
21567;SDS011;10944;42.590;12.630;2022-11-20T06:30:04;8.45;;;5.68;;
21567;SDS011;10944;42.590;12.630;2022-11-20T06:32:30;10.80;;;7.35;;
21567;SDS011;10944;42.590;12.630;2022-11-20T06:34:55;11.93;;;7.60;;
21567;SDS011;10944;42.590;12.630;2022-11-20T06:37:21;10.43;;;7.00;;
21567;SDS011;10944;42.590;12.630;2022-11-20T06:39:47;10.98;;;7.57;;
21567;SDS011;10944;42.590;12.630;2022-11-20T06:42:12;11.25;;;7.60;;
21567;SDS011;10944;42.590;12.630;2022-11-20T06:44:38;11.35;;;7.60;;
21567;SDS011;10944;42.590;12.630;2022-11-20T06:47:04;12.43;;;7.60;;
21567;SDS011;10944;42.590;12.630;2022-11-20T06:49:29;12.20;;;8.23;;
21567;SDS011;10944;42.590;12.630;2022-11-20T06:51:55;11.27;;;7.65;;
21567;SDS011;10944;42.590;12.630;2022-11-20T06:54:21;12.98;;;8.20;;
21567;SDS011;10944;42.590;12.630;2022-11-20T06:56:47;12.02;;;7.57;;
21567;SDS011;10944;42.590;12.630;2022-11-20T06:59:13;12.63;;;7.28;;
21567;SDS011;10944;42.590;12.630;2022-11-20T07:01:42;11.00;;;6.72;;
21567;SDS011;10944;42.590;12.630;2022-11-20T07:04:08;9.90;;;6.65;;
21567;SDS011;10944;42.590;12.630;2022-11-20T07:06:33;10.10;;;6.72;;
21567;SDS011;10944;42.590;12.630;2022-11-20T07:08:59;11.27;;;6.97;;
21567;SDS011;10944;42.590;12.630;2022-11-20T07:11:25;12.38;;;7.65;;
21567;SDS011;10944;42.590;12.630;2022-11-20T07:13:51;12.55;;;7.60;;
21567;SDS011;10944;42.590;12.630;2022-11-20T07:16:16;11.07;;;7.18;;
21567;SDS011;10944;42.590;12.630;2022-11-20T07:18:42;10.55;;;6.85;;
21567;SDS011;10944;42.590;12.630;2022-11-20T07:21:08;11.30;;;7.00;;
21567;SDS011;10944;42.590;12.630;2022-11-20T07:23:35;12.07;;;7.05;;
21567;SDS011;10944;42.590;12.630;2022-11-20T07:26:05;10.80;;;7.63;;
21567;SDS011;10944;42.590;12.630;2022-11-20T07:28:31;11.73;;;7.93;;
21567;SDS011;10944;42.590;12.630;2022-11-20T07:30:57;13.48;;;8.18;;
21567;SDS011;10944;42.590;12.630;2022-11-20T07:33:23;12.40;;;8.45;;
21567;SDS011;10944;42.590;12.630;2022-11-20T07:35:48;13.68;;;8.90;;
21567;SDS011;10944;42.590;12.630;2022-11-20T07:38:14;13.77;;;8.93;;
21567;SDS011;10944;42.590;12.630;2022-11-20T07:40:40;11.07;;;7.88;;
21567;SDS011;10944;42.590;12.630;2022-11-20T07:43:06;13.27;;;7.70;;
21567;SDS011;10944;42.590;12.630;2022-11-20T07:45:31;11.50;;;8.05;;
21567;SDS011;10944;42.590;12.630;2022-11-20T07:47:57;12.80;;;8.40;;
21567;SDS011;10944;42.590;12.630;2022-11-20T07:50:23;13.70;;;8.73;;
21567;SDS011;10944;42.590;12.630;2022-11-20T07:52:48;12.57;;;8.60;;
21567;SDS011;10944;42.590;12.630;2022-11-20T07:55:14;13.93;;;9.27;;
21567;SDS011;10944;42.590;12.630;2022-11-20T07:57:40;16.95;;;11.77;;
21567;SDS011;10944;42.590;12.630;2022-11-20T08:00:07;18.75;;;11.95;;
21567;SDS011;10944;42.590;12.630;2022-11-20T08:02:36;21.15;;;12.60;;
21567;SDS011;10944;42.590;12.630;2022-11-20T08:05:06;22.63;;;14.25;;
21567;SDS011;10944;42.590;12.630;2022-11-20T08:07:38;18.95;;;12.13;;
21567;SDS011;10944;42.590;12.630;2022-11-20T08:10:06;27.10;;;16.77;;
21567;SDS011;10944;42.590;12.630;2022-11-20T08:12:33;24.13;;;15.50;;
21567;SDS011;10944;42.590;12.630;2022-11-20T08:15:17;25.25;;;16.65;;
21567;SDS011;10944;42.590;12.630;2022-11-20T08:17:42;27.42;;;16.83;;
21567;SDS011;10944;42.590;12.630;2022-11-20T08:20:08;23.10;;;15.93;;
21567;SDS011;10944;42.590;12.630;2022-11-20T08:22:34;20.58;;;14.27;;
21567;SDS011;10944;42.590;12.630;2022-11-20T08:25:00;19.88;;;13.50;;
21567;SDS011;10944;42.590;12.630;2022-11-20T08:27:26;21.20;;;12.20;;
21567;SDS011;10944;42.590;12.630;2022-11-20T08:29:52;22.33;;;14.05;;
21567;SDS011;10944;42.590;12.630;2022-11-20T08:32:18;20.25;;;14.23;;
21567;SDS011;10944;42.590;12.630;2022-11-20T08:34:43;19.00;;;13.90;;
21567;SDS011;10944;42.590;12.630;2022-11-20T08:37:09;18.27;;;12.48;;
21567;SDS011;10944;42.590;12.630;2022-11-20T08:39:35;14.50;;;10.15;;
21567;SDS011;10944;42.590;12.630;2022-11-20T08:42:00;14.02;;;9.70;;
21567;SDS011;10944;42.590;12.630;2022-11-20T08:44:26;12.65;;;8.98;;
21567;SDS011;10944;42.590;12.630;2022-11-20T08:46:52;14.45;;;9.32;;
21567;SDS011;10944;42.590;12.630;2022-11-20T08:49:17;12.13;;;8.18;;
21567;SDS011;10944;42.590;12.630;2022-11-20T08:51:43;10.70;;;7.47;;
21567;SDS011;10944;42.590;12.630;2022-11-20T08:54:10;10.15;;;7.03;;
21567;SDS011;10944;42.590;12.630;2022-11-20T08:56:35;8.20;;;5.50;;
21567;SDS011;10944;42.590;12.630;2022-11-20T08:59:01;10.48;;;5.70;;
21567;SDS011;10944;42.590;12.630;2022-11-20T09:01:28;10.05;;;5.60;;
21567;SDS011;10944;42.590;12.630;2022-11-20T09:03:55;10.32;;;6.38;;
21567;SDS011;10944;42.590;12.630;2022-11-20T09:06:24;11.55;;;6.70;;
21567;SDS011;10944;42.590;12.630;2022-11-20T09:08:54;10.10;;;6.03;;
21567;SDS011;10944;42.590;12.630;2022-11-20T09:11:20;9.20;;;5.57;;
21567;SDS011;10944;42.590;12.630;2022-11-20T09:13:46;7.15;;;5.13;;
21567;SDS011;10944;42.590;12.630;2022-11-20T09:16:12;8.23;;;4.40;;
21567;SDS011;10944;42.590;12.630;2022-11-20T09:18:38;7.35;;;4.47;;
21567;SDS011;10944;42.590;12.630;2022-11-20T09:21:05;21.35;;;12.85;;
21567;SDS011;10944;42.590;12.630;2022-11-20T09:23:32;9.32;;;6.00;;
21567;SDS011;10944;42.590;12.630;2022-11-20T09:26:07;6.30;;;3.67;;
21567;SDS011;10944;42.590;12.630;2022-11-20T09:28:35;11.55;;;7.80;;
21567;SDS011;10944;42.590;12.630;2022-11-20T09:31:00;6.78;;;3.55;;
21567;SDS011;10944;42.590;12.630;2022-11-20T09:33:29;6.00;;;3.63;;
21567;SDS011;10944;42.590;12.630;2022-11-20T09:35:55;6.88;;;3.90;;
21567;SDS011;10944;42.590;12.630;2022-11-20T09:38:20;4.95;;;3.10;;
21567;SDS011;10944;42.590;12.630;2022-11-20T09:49:58;4.00;;;2.63;;
21567;SDS011;10944;42.590;12.630;2022-11-20T09:55:11;7.68;;;5.10;;
21567;SDS011;10944;42.590;12.630;2022-11-20T09:57:40;8.00;;;5.68;;
21567;SDS011;10944;42.590;12.630;2022-11-20T10:00:10;2.92;;;1.80;;
21567;SDS011;10944;42.590;12.630;2022-11-20T10:05:18;12.35;;;7.78;;
21567;SDS011;10944;42.590;12.630;2022-11-20T10:13:09;5.68;;;3.10;;
21567;SDS011;10944;42.590;12.630;2022-11-20T10:16:03;3.90;;;1.90;;
21567;SDS011;10944;42.590;12.630;2022-11-20T10:18:42;2.28;;;1.35;;
21567;SDS011;10944;42.590;12.630;2022-11-20T10:21:19;2.05;;;1.30;;
21567;SDS011;10944;42.590;12.630;2022-11-20T10:23:56;3.22;;;1.80;;
21567;SDS011;10944;42.590;12.630;2022-11-20T10:26:50;3.33;;;2.20;;
21567;SDS011;10944;42.590;12.630;2022-11-20T10:29:35;5.10;;;2.75;;
21567;SDS011;10944;42.590;12.630;2022-11-20T10:32:04;65.47;;;36.63;;
21567;SDS011;10944;42.590;12.630;2022-11-20T10:34:55;3.95;;;2.15;;
21567;SDS011;10944;42.590;12.630;2022-11-20T10:37:41;7.03;;;3.88;;
21567;SDS011;10944;42.590;12.630;2022-11-20T10:43:01;3.33;;;1.30;;
21567;SDS011;10944;42.590;12.630;2022-11-20T10:45:35;7.13;;;1.00;;
21567;SDS011;10944;42.590;12.630;2022-11-20T10:48:24;5.68;;;1.40;;
21567;SDS011;10944;42.590;12.630;2022-11-20T10:53:53;4.03;;;1.15;;
21567;SDS011;10944;42.590;12.630;2022-11-20T10:56:46;3.75;;;1.35;;
21567;SDS011;10944;42.590;12.630;2022-11-20T11:01:47;2.08;;;1.00;;
21567;SDS011;10944;42.590;12.630;2022-11-20T11:04:21;2.25;;;1.20;;
21567;SDS011;10944;42.590;12.630;2022-11-20T11:06:52;3.30;;;1.20;;
21567;SDS011;10944;42.590;12.630;2022-11-20T11:09:30;3.17;;;1.30;;
21567;SDS011;10944;42.590;12.630;2022-11-20T11:12:00;2.15;;;1.30;;
21567;SDS011;10944;42.590;12.630;2022-11-20T11:14:26;4.65;;;1.60;;
21567;SDS011;10944;42.590;12.630;2022-11-20T11:16:55;4.00;;;1.60;;
21567;SDS011;10944;42.590;12.630;2022-11-20T11:19:22;2.50;;;1.33;;
21567;SDS011;10944;42.590;12.630;2022-11-20T11:21:49;3.75;;;1.55;;
21567;SDS011;10944;42.590;12.630;2022-11-20T11:24:28;2.95;;;1.60;;
21567;SDS011;10944;42.590;12.630;2022-11-20T11:26:59;3.28;;;1.67;;
21567;SDS011;10944;42.590;12.630;2022-11-20T11:29:35;3.78;;;1.77;;
21567;SDS011;10944;42.590;12.630;2022-11-20T11:32:08;2.20;;;1.60;;
21567;SDS011;10944;42.590;12.630;2022-11-20T11:34:43;2.38;;;1.60;;
21567;SDS011;10944;42.590;12.630;2022-11-20T11:37:19;3.25;;;1.60;;
21567;SDS011;10944;42.590;12.630;2022-11-20T11:39:49;2.58;;;1.70;;
21567;SDS011;10944;42.590;12.630;2022-11-20T11:42:18;3.35;;;1.70;;
21567;SDS011;10944;42.590;12.630;2022-11-20T11:44:45;2.92;;;1.60;;
21567;SDS011;10944;42.590;12.630;2022-11-20T11:52:42;3.20;;;1.80;;
21567;SDS011;10944;42.590;12.630;2022-11-20T12:00:28;3.50;;;1.90;;
21567;SDS011;10944;42.590;12.630;2022-11-20T12:02:57;2.90;;;1.90;;
21567;SDS011;10944;42.590;12.630;2022-11-20T12:13:32;6.32;;;2.03;;
21567;SDS011;10944;42.590;12.630;2022-11-20T12:16:05;2.95;;;1.80;;
21567;SDS011;10944;42.590;12.630;2022-11-20T12:18:36;4.43;;;1.90;;
21567;SDS011;10944;42.590;12.630;2022-11-20T12:21:11;3.30;;;1.77;;
21567;SDS011;10944;42.590;12.630;2022-11-20T12:24:09;3.90;;;1.70;;
21567;SDS011;10944;42.590;12.630;2022-11-20T12:37:48;3.30;;;1.90;;
21567;SDS011;10944;42.590;12.630;2022-11-20T12:46:28;3.42;;;1.80;;
21567;SDS011;10944;42.590;12.630;2022-11-20T12:48:56;2.17;;;1.48;;
21567;SDS011;10944;42.590;12.630;2022-11-20T12:54:26;2.67;;;1.75;;
21567;SDS011;10944;42.590;12.630;2022-11-20T12:57:19;2.47;;;1.45;;
21567;SDS011;10944;42.590;12.630;2022-11-20T13:05:05;2.92;;;1.80;;
21567;SDS011;10944;42.590;12.630;2022-11-20T13:07:33;3.00;;;2.10;;
21567;SDS011;10944;42.590;12.630;2022-11-20T13:10:01;4.18;;;1.60;;
21567;SDS011;10944;42.590;12.630;2022-11-20T13:12:31;3.60;;;1.90;;
21567;SDS011;10944;42.590;12.630;2022-11-20T13:15:14;4.03;;;1.60;;
21567;SDS011;10944;42.590;12.630;2022-11-20T13:17:58;3.63;;;2.00;;
21567;SDS011;10944;42.590;12.630;2022-11-20T13:20:26;5.22;;;2.10;;
21567;SDS011;10944;42.590;12.630;2022-11-20T13:22:53;3.33;;;2.00;;
21567;SDS011;10944;42.590;12.630;2022-11-20T13:27:58;4.20;;;1.70;;
21567;SDS011;10944;42.590;12.630;2022-11-20T13:30:26;2.53;;;1.70;;
21567;SDS011;10944;42.590;12.630;2022-11-20T13:32:57;2.88;;;2.00;;
21567;SDS011;10944;42.590;12.630;2022-11-20T13:35:34;3.47;;;2.00;;
21567;SDS011;10944;42.590;12.630;2022-11-20T13:38:09;2.40;;;1.85;;
21567;SDS011;10944;42.590;12.630;2022-11-20T13:40:58;3.67;;;1.92;;
21567;SDS011;10944;42.590;12.630;2022-11-20T13:43:46;3.13;;;1.80;;
21567;SDS011;10944;42.590;12.630;2022-11-20T13:46:13;2.83;;;1.70;;
21567;SDS011;10944;42.590;12.630;2022-11-20T13:48:43;4.72;;;1.70;;
21567;SDS011;10944;42.590;12.630;2022-11-20T14:02:21;2.90;;;1.77;;
21567;SDS011;10944;42.590;12.630;2022-11-20T14:04:51;3.85;;;1.98;;
21567;SDS011;10944;42.590;12.630;2022-11-20T14:07:20;3.40;;;1.45;;
21567;SDS011;10944;42.590;12.630;2022-11-20T14:09:49;2.40;;;1.70;;
21567;SDS011;10944;42.590;12.630;2022-11-20T14:12:18;2.83;;;2.00;;
21567;SDS011;10944;42.590;12.630;2022-11-20T14:14:50;4.80;;;2.08;;
21567;SDS011;10944;42.590;12.630;2022-11-20T14:17:19;2.47;;;1.70;;
21567;SDS011;10944;42.590;12.630;2022-11-20T14:19:50;3.00;;;1.80;;
21567;SDS011;10944;42.590;12.630;2022-11-20T14:24:45;2.85;;;2.00;;
21567;SDS011;10944;42.590;12.630;2022-11-20T14:27:16;5.07;;;2.58;;
21567;SDS011;10944;42.590;12.630;2022-11-20T14:29:45;3.45;;;1.90;;
21567;SDS011;10944;42.590;12.630;2022-11-20T14:32:17;2.90;;;1.77;;
21567;SDS011;10944;42.590;12.630;2022-11-20T14:34:45;2.80;;;1.90;;
21567;SDS011;10944;42.590;12.630;2022-11-20T14:37:17;6.85;;;3.25;;
21567;SDS011;10944;42.590;12.630;2022-11-20T14:39:50;4.10;;;2.20;;
21567;SDS011;10944;42.590;12.630;2022-11-20T14:42:19;4.57;;;2.20;;
21567;SDS011;10944;42.590;12.630;2022-11-20T14:44:51;3.25;;;1.90;;
21567;SDS011;10944;42.590;12.630;2022-11-20T14:47:21;3.50;;;1.90;;
21567;SDS011;10944;42.590;12.630;2022-11-20T14:49:49;12.82;;;7.95;;
21567;SDS011;10944;42.590;12.630;2022-11-20T14:52:20;5.97;;;4.32;;
21567;SDS011;10944;42.590;12.630;2022-11-20T14:54:56;3.95;;;2.60;;
21567;SDS011;10944;42.590;12.630;2022-11-20T14:57:27;7.50;;;4.80;;
21567;SDS011;10944;42.590;12.630;2022-11-20T15:00:17;21.05;;;10.90;;
21567;SDS011;10944;42.590;12.630;2022-11-20T15:02:46;5.78;;;2.30;;
21567;SDS011;10944;42.590;12.630;2022-11-20T15:05:14;2.70;;;1.90;;
21567;SDS011;10944;42.590;12.630;2022-11-20T15:07:43;7.05;;;3.78;;
21567;SDS011;10944;42.590;12.630;2022-11-20T15:10:12;10.95;;;6.20;;
21567;SDS011;10944;42.590;12.630;2022-11-20T15:12:50;5.32;;;2.90;;
21567;SDS011;10944;42.590;12.630;2022-11-20T15:15:35;10.48;;;6.15;;
21567;SDS011;10944;42.590;12.630;2022-11-20T15:18:24;25.27;;;12.13;;
21567;SDS011;10944;42.590;12.630;2022-11-20T15:20:58;14.52;;;7.85;;
21567;SDS011;10944;42.590;12.630;2022-11-20T15:23:28;16.67;;;8.35;;
21567;SDS011;10944;42.590;12.630;2022-11-20T15:25:54;11.88;;;6.57;;
21567;SDS011;10944;42.590;12.630;2022-11-20T15:28:31;12.40;;;5.82;;
21567;SDS011;10944;42.590;12.630;2022-11-20T15:30:59;4.60;;;2.42;;
21567;SDS011;10944;42.590;12.630;2022-11-20T15:33:25;4.10;;;2.10;;
21567;SDS011;10944;42.590;12.630;2022-11-20T15:35:51;3.28;;;2.22;;
21567;SDS011;10944;42.590;12.630;2022-11-20T15:38:17;16.95;;;11.15;;
21567;SDS011;10944;42.590;12.630;2022-11-20T15:40:42;10.68;;;7.88;;
21567;SDS011;10944;42.590;12.630;2022-11-20T15:43:08;6.47;;;4.03;;
21567;SDS011;10944;42.590;12.630;2022-11-20T15:45:41;5.88;;;3.08;;
21567;SDS011;10944;42.590;12.630;2022-11-20T15:48:13;9.43;;;7.10;;
21567;SDS011;10944;42.590;12.630;2022-11-20T15:53:31;4.47;;;2.63;;
21567;SDS011;10944;42.590;12.630;2022-11-20T15:55:57;4.90;;;2.60;;
21567;SDS011;10944;42.590;12.630;2022-11-20T15:58:23;5.95;;;3.88;;
21567;SDS011;10944;42.590;12.630;2022-11-20T16:00:49;6.25;;;3.60;;
21567;SDS011;10944;42.590;12.630;2022-11-20T16:03:16;5.65;;;3.20;;
21567;SDS011;10944;42.590;12.630;2022-11-20T16:05:42;5.82;;;3.20;;
21567;SDS011;10944;42.590;12.630;2022-11-20T16:08:09;7.07;;;4.05;;
21567;SDS011;10944;42.590;12.630;2022-11-20T16:10:35;12.32;;;7.72;;
21567;SDS011;10944;42.590;12.630;2022-11-20T16:13:01;6.15;;;3.60;;
21567;SDS011;10944;42.590;12.630;2022-11-20T16:15:46;4.85;;;3.20;;
21567;SDS011;10944;42.590;12.630;2022-11-20T16:18:18;7.70;;;4.50;;
21567;SDS011;10944;42.590;12.630;2022-11-20T16:20:46;9.02;;;5.72;;